sensor_id;sensor_type;location;lat;lon;timestamp;temperature;humidity
2603;DHT22;1311;47.966;7.958;2023-04-25T00:00:12;9.20;99.90
2603;DHT22;1311;47.966;7.958;2023-04-25T00:02:39;9.20;99.90
2603;DHT22;1311;47.966;7.958;2023-04-25T00:05:07;9.20;99.90
2603;DHT22;1311;47.966;7.958;2023-04-25T00:07:35;9.30;99.90
2603;DHT22;1311;47.966;7.958;2023-04-25T00:10:03;9.20;99.90
2603;DHT22;1311;47.966;7.958;2023-04-25T00:12:30;9.20;99.90
2603;DHT22;1311;47.966;7.958;2023-04-25T00:14:58;9.10;99.90
2603;DHT22;1311;47.966;7.958;2023-04-25T00:17:25;9.10;99.90
2603;DHT22;1311;47.966;7.958;2023-04-25T00:19:52;9.10;99.90
2603;DHT22;1311;47.966;7.958;2023-04-25T00:22:19;9.00;99.90
2603;DHT22;1311;47.966;7.958;2023-04-25T00:24:47;9.00;99.90
2603;DHT22;1311;47.966;7.958;2023-04-25T00:27:14;8.90;99.90
2603;DHT22;1311;47.966;7.958;2023-04-25T00:29:41;8.90;99.90
2603;DHT22;1311;47.966;7.958;2023-04-25T00:32:08;8.90;99.90
2603;DHT22;1311;47.966;7.958;2023-04-25T00:34:35;8.80;99.90
2603;DHT22;1311;47.966;7.958;2023-04-25T00:37:01;8.80;99.90
2603;DHT22;1311;47.966;7.958;2023-04-25T00:39:28;8.80;99.90
2603;DHT22;1311;47.966;7.958;2023-04-25T00:41:56;8.70;99.90
2603;DHT22;1311;47.966;7.958;2023-04-25T00:44:24;8.70;99.90
2603;DHT22;1311;47.966;7.958;2023-04-25T00:46:52;8.70;99.90
2603;DHT22;1311;47.966;7.958;2023-04-25T00:49:20;8.60;99.90
2603;DHT22;1311;47.966;7.958;2023-04-25T00:51:46;8.60;99.90
2603;DHT22;1311;47.966;7.958;2023-04-25T00:54:13;8.60;99.90
2603;DHT22;1311;47.966;7.958;2023-04-25T00:56:41;8.50;99.90
2603;DHT22;1311;47.966;7.958;2023-04-25T00:59:09;8.50;99.90
2603;DHT22;1311;47.966;7.958;2023-04-25T01:01:36;8.50;99.90
2603;DHT22;1311;47.966;7.958;2023-04-25T01:04:04;8.40;99.90
2603;DHT22;1311;47.966;7.958;2023-04-25T01:06:31;8.30;99.90
2603;DHT22;1311;47.966;7.958;2023-04-25T01:08:59;8.20;99.90
2603;DHT22;1311;47.966;7.958;2023-04-25T01:11:26;8.00;99.90
2603;DHT22;1311;47.966;7.958;2023-04-25T01:13:52;8.00;99.90
2603;DHT22;1311;47.966;7.958;2023-04-25T01:16:20;8.00;99.90
2603;DHT22;1311;47.966;7.958;2023-04-25T01:18:49;8.00;99.90
2603;DHT22;1311;47.966;7.958;2023-04-25T01:21:18;7.90;99.90
2603;DHT22;1311;47.966;7.958;2023-04-25T01:23:45;7.90;99.90
2603;DHT22;1311;47.966;7.958;2023-04-25T01:26:12;7.90;99.90
2603;DHT22;1311;47.966;7.958;2023-04-25T01:28:39;7.80;99.90
2603;DHT22;1311;47.966;7.958;2023-04-25T01:31:07;7.80;99.90
2603;DHT22;1311;47.966;7.958;2023-04-25T01:33:34;7.80;99.90
2603;DHT22;1311;47.966;7.958;2023-04-25T01:36:01;7.70;99.90
2603;DHT22;1311;47.966;7.958;2023-04-25T01:38:29;7.60;99.90
2603;DHT22;1311;47.966;7.958;2023-04-25T01:40:56;7.60;99.90
2603;DHT22;1311;47.966;7.958;2023-04-25T01:43:24;7.60;99.90
2603;DHT22;1311;47.966;7.958;2023-04-25T01:45:52;7.50;99.90
2603;DHT22;1311;47.966;7.958;2023-04-25T01:48:19;7.40;99.90
2603;DHT22;1311;47.966;7.958;2023-04-25T01:50:45;7.20;99.90
2603;DHT22;1311;47.966;7.958;2023-04-25T01:53:13;7.20;99.90
2603;DHT22;1311;47.966;7.958;2023-04-25T01:55:41;7.20;99.90
2603;DHT22;1311;47.966;7.958;2023-04-25T01:58:08;7.30;99.90
2603;DHT22;1311;47.966;7.958;2023-04-25T02:00:38;7.30;99.90
2603;DHT22;1311;47.966;7.958;2023-04-25T02:03:06;7.30;99.90
2603;DHT22;1311;47.966;7.958;2023-04-25T02:05:37;7.40;99.90
2603;DHT22;1311;47.966;7.958;2023-04-25T02:08:05;7.40;99.90
2603;DHT22;1311;47.966;7.958;2023-04-25T02:10:33;7.40;99.90
2603;DHT22;1311;47.966;7.958;2023-04-25T02:13:01;7.50;99.90
2603;DHT22;1311;47.966;7.958;2023-04-25T02:15:29;7.50;99.90
2603;DHT22;1311;47.966;7.958;2023-04-25T02:17:56;7.50;99.90
2603;DHT22;1311;47.966;7.958;2023-04-25T02:20:24;7.50;99.90
2603;DHT22;1311;47.966;7.958;2023-04-25T02:22:51;7.60;99.90
2603;DHT22;1311;47.966;7.958;2023-04-25T02:25:18;7.60;99.90
2603;DHT22;1311;47.966;7.958;2023-04-25T02:27:45;7.60;99.90
2603;DHT22;1311;47.966;7.958;2023-04-25T02:30:14;7.60;99.90
2603;DHT22;1311;47.966;7.958;2023-04-25T02:32:41;7.60;99.90
2603;DHT22;1311;47.966;7.958;2023-04-25T02:35:08;7.60;99.90
2603;DHT22;1311;47.966;7.958;2023-04-25T02:37:38;7.60;99.90
2603;DHT22;1311;47.966;7.958;2023-04-25T02:40:06;7.60;99.90
2603;DHT22;1311;47.966;7.958;2023-04-25T02:42:33;7.60;99.90
2603;DHT22;1311;47.966;7.958;2023-04-25T02:45:00;7.60;99.90
2603;DHT22;1311;47.966;7.958;2023-04-25T02:47:28;7.60;99.90
2603;DHT22;1311;47.966;7.958;2023-04-25T02:49:55;7.60;99.90
2603;DHT22;1311;47.966;7.958;2023-04-25T02:52:21;7.60;99.90
2603;DHT22;1311;47.966;7.958;2023-04-25T02:54:48;7.60;99.90
2603;DHT22;1311;47.966;7.958;2023-04-25T02:57:15;7.60;99.90
2603;DHT22;1311;47.966;7.958;2023-04-25T02:59:42;7.50;99.90
2603;DHT22;1311;47.966;7.958;2023-04-25T03:02:10;7.50;99.90
2603;DHT22;1311;47.966;7.958;2023-04-25T03:04:38;7.40;99.90
2603;DHT22;1311;47.966;7.958;2023-04-25T03:07:05;7.20;99.90
2603;DHT22;1311;47.966;7.958;2023-04-25T03:09:31;7.20;99.90
2603;DHT22;1311;47.966;7.958;2023-04-25T03:11:58;7.30;99.90
2603;DHT22;1311;47.966;7.958;2023-04-25T03:14:25;7.20;99.90
2603;DHT22;1311;47.966;7.958;2023-04-25T03:16:52;7.20;99.90
2603;DHT22;1311;47.966;7.958;2023-04-25T03:19:19;7.20;99.90
2603;DHT22;1311;47.966;7.958;2023-04-25T03:21:47;7.20;99.90
2603;DHT22;1311;47.966;7.958;2023-04-25T03:24:14;7.10;99.90
2603;DHT22;1311;47.966;7.958;2023-04-25T03:26:40;7.20;99.90
2603;DHT22;1311;47.966;7.958;2023-04-25T03:29:07;7.10;99.90
2603;DHT22;1311;47.966;7.958;2023-04-25T03:31:34;7.20;99.90
2603;DHT22;1311;47.966;7.958;2023-04-25T03:34:00;7.20;99.90
2603;DHT22;1311;47.966;7.958;2023-04-25T03:36:27;7.10;99.90
2603;DHT22;1311;47.966;7.958;2023-04-25T03:38:55;7.10;99.90
2603;DHT22;1311;47.966;7.958;2023-04-25T03:41:22;7.10;99.90
2603;DHT22;1311;47.966;7.958;2023-04-25T03:43:49;7.10;99.90
2603;DHT22;1311;47.966;7.958;2023-04-25T03:46:15;7.00;99.90
2603;DHT22;1311;47.966;7.958;2023-04-25T03:48:42;7.00;99.90
2603;DHT22;1311;47.966;7.958;2023-04-25T03:51:09;7.00;99.90
2603;DHT22;1311;47.966;7.958;2023-04-25T03:53:35;6.90;99.90
2603;DHT22;1311;47.966;7.958;2023-04-25T03:56:04;6.90;99.90
2603;DHT22;1311;47.966;7.958;2023-04-25T03:58:31;6.80;99.90
2603;DHT22;1311;47.966;7.958;2023-04-25T04:00:58;6.80;99.90
2603;DHT22;1311;47.966;7.958;2023-04-25T04:03:24;6.70;99.90
2603;DHT22;1311;47.966;7.958;2023-04-25T04:05:51;6.60;99.90
2603;DHT22;1311;47.966;7.958;2023-04-25T04:08:18;6.60;99.90
2603;DHT22;1311;47.966;7.958;2023-04-25T04:10:45;6.50;99.90
2603;DHT22;1311;47.966;7.958;2023-04-25T04:13:13;6.40;99.90
2603;DHT22;1311;47.966;7.958;2023-04-25T04:15:39;6.30;99.90
2603;DHT22;1311;47.966;7.958;2023-04-25T04:18:06;6.30;99.90
2603;DHT22;1311;47.966;7.958;2023-04-25T04:20:33;6.30;99.90
2603;DHT22;1311;47.966;7.958;2023-04-25T04:23:00;6.30;99.90
2603;DHT22;1311;47.966;7.958;2023-04-25T04:25:26;6.30;99.90
2603;DHT22;1311;47.966;7.958;2023-04-25T04:27:54;6.30;99.90
2603;DHT22;1311;47.966;7.958;2023-04-25T04:30:23;6.30;99.90
2603;DHT22;1311;47.966;7.958;2023-04-25T04:32:51;6.30;99.90
2603;DHT22;1311;47.966;7.958;2023-04-25T04:35:17;6.30;99.90
2603;DHT22;1311;47.966;7.958;2023-04-25T04:37:44;6.30;99.90
2603;DHT22;1311;47.966;7.958;2023-04-25T04:40:11;6.30;99.90
2603;DHT22;1311;47.966;7.958;2023-04-25T04:42:41;6.40;99.90
2603;DHT22;1311;47.966;7.958;2023-04-25T04:45:08;6.40;99.90
2603;DHT22;1311;47.966;7.958;2023-04-25T04:47:36;6.50;99.90
2603;DHT22;1311;47.966;7.958;2023-04-25T04:50:05;6.40;99.90
2603;DHT22;1311;47.966;7.958;2023-04-25T04:52:32;6.50;99.90
2603;DHT22;1311;47.966;7.958;2023-04-25T04:54:59;6.60;99.90
2603;DHT22;1311;47.966;7.958;2023-04-25T04:57:27;6.60;99.90
2603;DHT22;1311;47.966;7.958;2023-04-25T04:59:54;6.60;99.90
2603;DHT22;1311;47.966;7.958;2023-04-25T05:02:21;6.60;99.90
2603;DHT22;1311;47.966;7.958;2023-04-25T05:04:49;6.60;99.90
2603;DHT22;1311;47.966;7.958;2023-04-25T05:07:17;6.60;99.90
2603;DHT22;1311;47.966;7.958;2023-04-25T05:09:44;6.60;99.90
2603;DHT22;1311;47.966;7.958;2023-04-25T05:12:10;6.60;99.90
2603;DHT22;1311;47.966;7.958;2023-04-25T05:14:37;6.70;99.90
2603;DHT22;1311;47.966;7.958;2023-04-25T05:17:04;6.70;99.90
2603;DHT22;1311;47.966;7.958;2023-04-25T05:19:33;6.70;99.90
2603;DHT22;1311;47.966;7.958;2023-04-25T05:22:02;6.80;99.90
2603;DHT22;1311;47.966;7.958;2023-04-25T05:24:29;6.90;99.90
2603;DHT22;1311;47.966;7.958;2023-04-25T05:26:56;6.90;99.90
2603;DHT22;1311;47.966;7.958;2023-04-25T05:29:22;7.00;99.90
2603;DHT22;1311;47.966;7.958;2023-04-25T05:31:49;7.00;99.90
2603;DHT22;1311;47.966;7.958;2023-04-25T05:34:16;7.00;99.90
2603;DHT22;1311;47.966;7.958;2023-04-25T05:36:43;7.10;99.90
2603;DHT22;1311;47.966;7.958;2023-04-25T05:39:11;7.10;99.90
2603;DHT22;1311;47.966;7.958;2023-04-25T05:41:38;7.10;99.90
2603;DHT22;1311;47.966;7.958;2023-04-25T05:44:05;7.10;99.90
2603;DHT22;1311;47.966;7.958;2023-04-25T05:46:32;7.10;99.90
2603;DHT22;1311;47.966;7.958;2023-04-25T05:48:59;7.20;99.90
2603;DHT22;1311;47.966;7.958;2023-04-25T05:51:25;7.20;99.90
2603;DHT22;1311;47.966;7.958;2023-04-25T05:53:53;7.20;99.90
2603;DHT22;1311;47.966;7.958;2023-04-25T05:56:21;7.20;99.90
2603;DHT22;1311;47.966;7.958;2023-04-25T05:58:47;7.20;99.90
2603;DHT22;1311;47.966;7.958;2023-04-25T06:01:14;7.20;99.90
2603;DHT22;1311;47.966;7.958;2023-04-25T06:03:41;7.20;99.90
2603;DHT22;1311;47.966;7.958;2023-04-25T06:06:08;7.20;99.90
2603;DHT22;1311;47.966;7.958;2023-04-25T06:08:35;7.10;99.90
2603;DHT22;1311;47.966;7.958;2023-04-25T06:11:03;7.20;99.90
2603;DHT22;1311;47.966;7.958;2023-04-25T06:13:31;7.30;99.90
2603;DHT22;1311;47.966;7.958;2023-04-25T06:15:58;7.30;99.90
2603;DHT22;1311;47.966;7.958;2023-04-25T06:18:25;7.30;99.90
2603;DHT22;1311;47.966;7.958;2023-04-25T06:20:51;7.30;99.90
2603;DHT22;1311;47.966;7.958;2023-04-25T06:23:18;7.30;99.90
2603;DHT22;1311;47.966;7.958;2023-04-25T06:25:45;7.30;99.90
2603;DHT22;1311;47.966;7.958;2023-04-25T06:28:12;7.20;99.90
2603;DHT22;1311;47.966;7.958;2023-04-25T06:30:40;7.20;99.90
2603;DHT22;1311;47.966;7.958;2023-04-25T06:33:07;7.20;99.90
2603;DHT22;1311;47.966;7.958;2023-04-25T06:35:34;7.20;99.90
2603;DHT22;1311;47.966;7.958;2023-04-25T06:38:01;7.10;99.90
2603;DHT22;1311;47.966;7.958;2023-04-25T06:40:28;7.10;99.90
2603;DHT22;1311;47.966;7.958;2023-04-25T06:42:55;7.00;99.90
2603;DHT22;1311;47.966;7.958;2023-04-25T06:45:21;6.90;99.90
2603;DHT22;1311;47.966;7.958;2023-04-25T06:47:49;6.90;99.90
2603;DHT22;1311;47.966;7.958;2023-04-25T06:50:16;7.00;99.90
2603;DHT22;1311;47.966;7.958;2023-04-25T06:52:43;7.10;99.90
2603;DHT22;1311;47.966;7.958;2023-04-25T06:55:10;7.20;99.90
2603;DHT22;1311;47.966;7.958;2023-04-25T06:57:36;7.30;99.90
2603;DHT22;1311;47.966;7.958;2023-04-25T07:00:04;7.30;99.90
2603;DHT22;1311;47.966;7.958;2023-04-25T07:02:34;7.20;99.90
2603;DHT22;1311;47.966;7.958;2023-04-25T07:05:02;7.10;99.90
2603;DHT22;1311;47.966;7.958;2023-04-25T07:07:29;7.20;99.90
2603;DHT22;1311;47.966;7.958;2023-04-25T07:09:56;7.10;99.90
2603;DHT22;1311;47.966;7.958;2023-04-25T07:12:23;7.10;99.90
2603;DHT22;1311;47.966;7.958;2023-04-25T07:14:50;7.20;99.90
2603;DHT22;1311;47.966;7.958;2023-04-25T07:17:16;7.10;99.90
2603;DHT22;1311;47.966;7.958;2023-04-25T07:19:43;7.10;99.90
2603;DHT22;1311;47.966;7.958;2023-04-25T07:22:11;7.20;99.90
2603;DHT22;1311;47.966;7.958;2023-04-25T07:24:38;7.30;99.90
2603;DHT22;1311;47.966;7.958;2023-04-25T07:27:05;7.30;99.90
2603;DHT22;1311;47.966;7.958;2023-04-25T07:29:32;7.40;99.90
2603;DHT22;1311;47.966;7.958;2023-04-25T07:32:02;7.40;99.90
2603;DHT22;1311;47.966;7.958;2023-04-25T07:34:29;7.50;99.90
2603;DHT22;1311;47.966;7.958;2023-04-25T07:36:57;7.60;99.90
2603;DHT22;1311;47.966;7.958;2023-04-25T07:39:26;7.50;99.90
2603;DHT22;1311;47.966;7.958;2023-04-25T07:41:52;7.50;99.90
2603;DHT22;1311;47.966;7.958;2023-04-25T07:44:20;7.50;99.90
2603;DHT22;1311;47.966;7.958;2023-04-25T07:46:47;7.50;99.90
2603;DHT22;1311;47.966;7.958;2023-04-25T07:49:13;7.50;99.90
2603;DHT22;1311;47.966;7.958;2023-04-25T07:51:40;7.60;99.90
2603;DHT22;1311;47.966;7.958;2023-04-25T07:54:08;7.40;99.90
2603;DHT22;1311;47.966;7.958;2023-04-25T07:56:37;7.40;99.90
2603;DHT22;1311;47.966;7.958;2023-04-25T07:59:03;7.40;99.90
2603;DHT22;1311;47.966;7.958;2023-04-25T08:01:30;7.40;99.90
2603;DHT22;1311;47.966;7.958;2023-04-25T08:03:57;7.40;99.90
2603;DHT22;1311;47.966;7.958;2023-04-25T08:06:24;7.40;99.90
2603;DHT22;1311;47.966;7.958;2023-04-25T08:08:51;7.40;99.90
2603;DHT22;1311;47.966;7.958;2023-04-25T08:11:17;7.40;99.90
2603;DHT22;1311;47.966;7.958;2023-04-25T08:13:45;7.50;99.90
2603;DHT22;1311;47.966;7.958;2023-04-25T08:16:12;7.70;99.90
2603;DHT22;1311;47.966;7.958;2023-04-25T08:18:39;7.90;99.90
2603;DHT22;1311;47.966;7.958;2023-04-25T08:21:05;7.90;99.90
2603;DHT22;1311;47.966;7.958;2023-04-25T08:23:34;8.00;99.90
2603;DHT22;1311;47.966;7.958;2023-04-25T08:26:02;8.00;99.90
2603;DHT22;1311;47.966;7.958;2023-04-25T08:28:30;7.90;99.90
2603;DHT22;1311;47.966;7.958;2023-04-25T08:30:58;8.00;99.90
2603;DHT22;1311;47.966;7.958;2023-04-25T08:33:25;8.30;99.90
2603;DHT22;1311;47.966;7.958;2023-04-25T08:35:52;8.30;99.90
2603;DHT22;1311;47.966;7.958;2023-04-25T08:38:18;8.20;99.90
2603;DHT22;1311;47.966;7.958;2023-04-25T08:40:49;8.10;99.90
2603;DHT22;1311;47.966;7.958;2023-04-25T08:43:19;8.00;99.90
2603;DHT22;1311;47.966;7.958;2023-04-25T08:45:46;7.90;99.90
2603;DHT22;1311;47.966;7.958;2023-04-25T08:48:16;7.90;99.90
2603;DHT22;1311;47.966;7.958;2023-04-25T08:50:46;7.80;99.90
2603;DHT22;1311;47.966;7.958;2023-04-25T08:53:16;7.80;99.90
2603;DHT22;1311;47.966;7.958;2023-04-25T08:55:46;7.90;99.90
2603;DHT22;1311;47.966;7.958;2023-04-25T08:58:13;8.00;99.90
2603;DHT22;1311;47.966;7.958;2023-04-25T09:00:40;8.20;99.90
2603;DHT22;1311;47.966;7.958;2023-04-25T09:03:07;8.30;99.90
2603;DHT22;1311;47.966;7.958;2023-04-25T09:05:36;8.50;99.90
2603;DHT22;1311;47.966;7.958;2023-04-25T09:08:03;8.50;99.90
2603;DHT22;1311;47.966;7.958;2023-04-25T09:10:29;8.30;99.90
2603;DHT22;1311;47.966;7.958;2023-04-25T09:13:03;8.20;99.90
2603;DHT22;1311;47.966;7.958;2023-04-25T09:15:32;8.20;99.90
2603;DHT22;1311;47.966;7.958;2023-04-25T09:17:59;8.30;99.90
2603;DHT22;1311;47.966;7.958;2023-04-25T09:20:28;8.40;99.90
2603;DHT22;1311;47.966;7.958;2023-04-25T09:23:05;8.60;99.90
2603;DHT22;1311;47.966;7.958;2023-04-25T09:25:36;8.60;99.90
2603;DHT22;1311;47.966;7.958;2023-04-25T09:28:05;8.70;99.90
2603;DHT22;1311;47.966;7.958;2023-04-25T09:30:33;8.60;99.90
2603;DHT22;1311;47.966;7.958;2023-04-25T09:33:04;8.70;99.90
2603;DHT22;1311;47.966;7.958;2023-04-25T09:35:36;8.70;99.90
2603;DHT22;1311;47.966;7.958;2023-04-25T09:38:09;8.70;99.90
2603;DHT22;1311;47.966;7.958;2023-04-25T09:40:39;9.00;99.90
2603;DHT22;1311;47.966;7.958;2023-04-25T09:43:09;8.90;99.90
2603;DHT22;1311;47.966;7.958;2023-04-25T09:45:41;8.90;99.90
2603;DHT22;1311;47.966;7.958;2023-04-25T09:48:11;8.90;99.90
2603;DHT22;1311;47.966;7.958;2023-04-25T09:50:38;8.90;99.90
2603;DHT22;1311;47.966;7.958;2023-04-25T09:53:07;8.90;99.90
2603;DHT22;1311;47.966;7.958;2023-04-25T09:55:35;9.20;99.90
2603;DHT22;1311;47.966;7.958;2023-04-25T09:58:04;9.20;99.90
2603;DHT22;1311;47.966;7.958;2023-04-25T10:00:32;9.40;99.90
2603;DHT22;1311;47.966;7.958;2023-04-25T10:03:01;9.40;99.90
2603;DHT22;1311;47.966;7.958;2023-04-25T10:05:30;9.60;99.90
2603;DHT22;1311;47.966;7.958;2023-04-25T10:07:59;9.90;99.90
2603;DHT22;1311;47.966;7.958;2023-04-25T10:10:30;9.90;99.90
2603;DHT22;1311;47.966;7.958;2023-04-25T10:13:03;9.90;99.90
2603;DHT22;1311;47.966;7.958;2023-04-25T10:15:31;10.20;99.90
2603;DHT22;1311;47.966;7.958;2023-04-25T10:17:58;10.60;99.90
2603;DHT22;1311;47.966;7.958;2023-04-25T10:20:26;10.60;99.90
2603;DHT22;1311;47.966;7.958;2023-04-25T10:22:54;11.00;99.90
2603;DHT22;1311;47.966;7.958;2023-04-25T10:25:23;10.90;99.90
2603;DHT22;1311;47.966;7.958;2023-04-25T10:27:52;10.70;99.90
2603;DHT22;1311;47.966;7.958;2023-04-25T10:30:19;10.30;99.90
2603;DHT22;1311;47.966;7.958;2023-04-25T10:32:46;9.70;99.90
2603;DHT22;1311;47.966;7.958;2023-04-25T10:35:17;9.60;99.90
2603;DHT22;1311;47.966;7.958;2023-04-25T10:37:57;9.70;99.90
2603;DHT22;1311;47.966;7.958;2023-04-25T10:40:24;10.20;99.90
2603;DHT22;1311;47.966;7.958;2023-04-25T10:42:53;10.60;99.90
2603;DHT22;1311;47.966;7.958;2023-04-25T10:45:21;11.00;99.90
2603;DHT22;1311;47.966;7.958;2023-04-25T10:47:48;11.00;99.90
2603;DHT22;1311;47.966;7.958;2023-04-25T10:50:15;10.70;99.90
2603;DHT22;1311;47.966;7.958;2023-04-25T10:52:42;10.20;99.90
2603;DHT22;1311;47.966;7.958;2023-04-25T10:55:09;9.70;99.90
2603;DHT22;1311;47.966;7.958;2023-04-25T10:57:38;9.70;99.90
2603;DHT22;1311;47.966;7.958;2023-04-25T11:00:09;9.30;99.90
2603;DHT22;1311;47.966;7.958;2023-04-25T11:02:38;9.30;99.90
2603;DHT22;1311;47.966;7.958;2023-04-25T11:05:07;9.40;99.90
2603;DHT22;1311;47.966;7.958;2023-04-25T11:07:39;9.50;99.90
2603;DHT22;1311;47.966;7.958;2023-04-25T11:10:10;9.40;99.90
2603;DHT22;1311;47.966;7.958;2023-04-25T11:12:37;9.50;99.90
2603;DHT22;1311;47.966;7.958;2023-04-25T11:15:04;9.60;99.90
2603;DHT22;1311;47.966;7.958;2023-04-25T11:17:33;9.70;99.90
2603;DHT22;1311;47.966;7.958;2023-04-25T11:20:00;10.00;99.90
2603;DHT22;1311;47.966;7.958;2023-04-25T11:22:31;11.00;99.90
2603;DHT22;1311;47.966;7.958;2023-04-25T11:25:00;11.80;99.90
2603;DHT22;1311;47.966;7.958;2023-04-25T11:27:30;12.00;99.90
2603;DHT22;1311;47.966;7.958;2023-04-25T11:29:57;11.80;99.90
2603;DHT22;1311;47.966;7.958;2023-04-25T11:32:24;11.90;99.90
2603;DHT22;1311;47.966;7.958;2023-04-25T11:34:52;12.80;99.90
2603;DHT22;1311;47.966;7.958;2023-04-25T11:37:19;13.30;99.90
2603;DHT22;1311;47.966;7.958;2023-04-25T11:39:47;14.10;99.90
2603;DHT22;1311;47.966;7.958;2023-04-25T11:42:14;13.80;99.90
2603;DHT22;1311;47.966;7.958;2023-04-25T11:44:41;14.00;99.90
2603;DHT22;1311;47.966;7.958;2023-04-25T11:47:07;14.10;99.90
2603;DHT22;1311;47.966;7.958;2023-04-25T11:49:35;14.30;99.90
2603;DHT22;1311;47.966;7.958;2023-04-25T11:52:06;14.20;99.90
2603;DHT22;1311;47.966;7.958;2023-04-25T11:54:35;13.70;99.90
2603;DHT22;1311;47.966;7.958;2023-04-25T11:57:02;14.20;99.90
2603;DHT22;1311;47.966;7.958;2023-04-25T11:59:29;13.70;99.90
2603;DHT22;1311;47.966;7.958;2023-04-25T12:01:56;13.10;99.90
2603;DHT22;1311;47.966;7.958;2023-04-25T12:04:24;12.70;99.90
2603;DHT22;1311;47.966;7.958;2023-04-25T12:06:53;12.40;99.90
2603;DHT22;1311;47.966;7.958;2023-04-25T12:09:29;12.10;99.90
2603;DHT22;1311;47.966;7.958;2023-04-25T12:11:58;11.70;99.90
2603;DHT22;1311;47.966;7.958;2023-04-25T12:14:29;11.30;99.90
2603;DHT22;1311;47.966;7.958;2023-04-25T12:16:57;11.20;99.90
2603;DHT22;1311;47.966;7.958;2023-04-25T12:19:25;10.90;99.90
2603;DHT22;1311;47.966;7.958;2023-04-25T12:21:52;11.00;99.90
2603;DHT22;1311;47.966;7.958;2023-04-25T12:24:24;11.00;99.90
2603;DHT22;1311;47.966;7.958;2023-04-25T12:26:52;11.30;99.90
2603;DHT22;1311;47.966;7.958;2023-04-25T12:29:21;11.70;99.90
2603;DHT22;1311;47.966;7.958;2023-04-25T12:31:48;11.90;99.90
2603;DHT22;1311;47.966;7.958;2023-04-25T12:34:16;12.00;99.90
2603;DHT22;1311;47.966;7.958;2023-04-25T12:36:43;11.80;99.90
2603;DHT22;1311;47.966;7.958;2023-04-25T12:39:14;12.00;99.90
2603;DHT22;1311;47.966;7.958;2023-04-25T12:41:43;12.30;99.90
2603;DHT22;1311;47.966;7.958;2023-04-25T12:44:10;12.40;99.90
2603;DHT22;1311;47.966;7.958;2023-04-25T12:46:37;12.40;99.90
2603;DHT22;1311;47.966;7.958;2023-04-25T12:49:04;12.60;99.90
2603;DHT22;1311;47.966;7.958;2023-04-25T12:51:32;12.40;99.90
2603;DHT22;1311;47.966;7.958;2023-04-25T12:53:58;12.30;99.90
2603;DHT22;1311;47.966;7.958;2023-04-25T12:56:25;12.50;99.90
2603;DHT22;1311;47.966;7.958;2023-04-25T12:58:54;12.60;99.90
2603;DHT22;1311;47.966;7.958;2023-04-25T13:01:21;12.70;99.90
2603;DHT22;1311;47.966;7.958;2023-04-25T13:03:48;13.30;99.90
2603;DHT22;1311;47.966;7.958;2023-04-25T13:06:15;13.70;99.90
2603;DHT22;1311;47.966;7.958;2023-04-25T13:08:42;13.60;99.90
2603;DHT22;1311;47.966;7.958;2023-04-25T13:11:09;13.40;99.90
2603;DHT22;1311;47.966;7.958;2023-04-25T13:13:36;13.80;99.90
2603;DHT22;1311;47.966;7.958;2023-04-25T13:16:06;14.60;99.90
2603;DHT22;1311;47.966;7.958;2023-04-25T13:18:33;15.00;99.90
2603;DHT22;1311;47.966;7.958;2023-04-25T13:21:01;15.20;99.90
2603;DHT22;1311;47.966;7.958;2023-04-25T13:23:29;15.20;99.90
2603;DHT22;1311;47.966;7.958;2023-04-25T13:25:56;14.80;99.90
2603;DHT22;1311;47.966;7.958;2023-04-25T13:28:24;14.80;99.90
2603;DHT22;1311;47.966;7.958;2023-04-25T13:30:50;14.70;99.90
2603;DHT22;1311;47.966;7.958;2023-04-25T13:33:19;14.90;99.90
2603;DHT22;1311;47.966;7.958;2023-04-25T13:35:46;15.20;94.60
2603;DHT22;1311;47.966;7.958;2023-04-25T13:38:19;14.90;1.00
2603;DHT22;1311;47.966;7.958;2023-04-25T13:40:46;14.80;1.00
2603;DHT22;1311;47.966;7.958;2023-04-25T13:43:13;14.70;1.00
2603;DHT22;1311;47.966;7.958;2023-04-25T13:45:39;14.40;1.00
2603;DHT22;1311;47.966;7.958;2023-04-25T13:48:06;13.50;1.00
2603;DHT22;1311;47.966;7.958;2023-04-25T13:50:34;12.90;1.00
2603;DHT22;1311;47.966;7.958;2023-04-25T13:53:01;11.80;54.70
2603;DHT22;1311;47.966;7.958;2023-04-25T13:55:28;11.00;99.90
2603;DHT22;1311;47.966;7.958;2023-04-25T13:57:55;10.80;99.90
2603;DHT22;1311;47.966;7.958;2023-04-25T14:00:22;10.60;99.90
2603;DHT22;1311;47.966;7.958;2023-04-25T14:02:49;10.70;99.90
2603;DHT22;1311;47.966;7.958;2023-04-25T14:05:16;10.90;99.90
2603;DHT22;1311;47.966;7.958;2023-04-25T14:07:44;10.90;99.90
2603;DHT22;1311;47.966;7.958;2023-04-25T14:10:11;10.80;99.90
2603;DHT22;1311;47.966;7.958;2023-04-25T14:12:38;10.40;99.90
2603;DHT22;1311;47.966;7.958;2023-04-25T14:15:06;10.40;99.90
2603;DHT22;1311;47.966;7.958;2023-04-25T14:17:33;11.00;99.90
2603;DHT22;1311;47.966;7.958;2023-04-25T14:19:59;11.50;99.90
2603;DHT22;1311;47.966;7.958;2023-04-25T14:22:26;12.10;99.90
2603;DHT22;1311;47.966;7.958;2023-04-25T14:24:54;12.00;99.90
2603;DHT22;1311;47.966;7.958;2023-04-25T14:27:21;12.20;99.90
2603;DHT22;1311;47.966;7.958;2023-04-25T14:29:48;12.10;99.90
2603;DHT22;1311;47.966;7.958;2023-04-25T14:32:14;12.40;99.90
2603;DHT22;1311;47.966;7.958;2023-04-25T14:34:41;12.50;99.90
2603;DHT22;1311;47.966;7.958;2023-04-25T14:37:08;13.30;99.90
2603;DHT22;1311;47.966;7.958;2023-04-25T14:39:35;13.30;99.90
2603;DHT22;1311;47.966;7.958;2023-04-25T14:42:03;13.00;99.90
2603;DHT22;1311;47.966;7.958;2023-04-25T14:44:30;12.90;99.90
2603;DHT22;1311;47.966;7.958;2023-04-25T14:46:57;13.10;99.90
2603;DHT22;1311;47.966;7.958;2023-04-25T14:49:24;13.00;99.90
2603;DHT22;1311;47.966;7.958;2023-04-25T14:51:50;12.60;99.90
2603;DHT22;1311;47.966;7.958;2023-04-25T14:54:17;12.60;99.90
2603;DHT22;1311;47.966;7.958;2023-04-25T14:56:44;12.40;99.90
2603;DHT22;1311;47.966;7.958;2023-04-25T14:59:12;12.20;99.90
2603;DHT22;1311;47.966;7.958;2023-04-25T15:01:39;12.20;99.90
2603;DHT22;1311;47.966;7.958;2023-04-25T15:04:06;12.00;99.90
2603;DHT22;1311;47.966;7.958;2023-04-25T15:06:33;12.10;99.90
2603;DHT22;1311;47.966;7.958;2023-04-25T15:09:00;12.00;99.90
2603;DHT22;1311;47.966;7.958;2023-04-25T15:11:27;12.10;99.90
2603;DHT22;1311;47.966;7.958;2023-04-25T15:13:53;12.20;99.90
2603;DHT22;1311;47.966;7.958;2023-04-25T15:16:22;12.30;99.90
2603;DHT22;1311;47.966;7.958;2023-04-25T15:18:48;12.30;99.90
2603;DHT22;1311;47.966;7.958;2023-04-25T15:21:15;12.20;99.90
2603;DHT22;1311;47.966;7.958;2023-04-25T15:23:42;12.00;99.90
2603;DHT22;1311;47.966;7.958;2023-04-25T15:26:09;11.80;99.90
2603;DHT22;1311;47.966;7.958;2023-04-25T15:28:36;11.60;99.90
2603;DHT22;1311;47.966;7.958;2023-04-25T15:31:03;10.90;99.90
2603;DHT22;1311;47.966;7.958;2023-04-25T15:33:31;10.70;99.90
2603;DHT22;1311;47.966;7.958;2023-04-25T15:35:58;10.60;99.90
2603;DHT22;1311;47.966;7.958;2023-04-25T15:38:25;10.50;99.90
2603;DHT22;1311;47.966;7.958;2023-04-25T15:40:52;10.20;99.90
2603;DHT22;1311;47.966;7.958;2023-04-25T15:43:19;10.10;99.90
2603;DHT22;1311;47.966;7.958;2023-04-25T15:45:45;9.90;99.90
2603;DHT22;1311;47.966;7.958;2023-04-25T15:48:12;9.80;99.90
2603;DHT22;1311;47.966;7.958;2023-04-25T15:50:40;9.90;99.90
2603;DHT22;1311;47.966;7.958;2023-04-25T15:53:07;10.00;99.90
2603;DHT22;1311;47.966;7.958;2023-04-25T15:55:34;10.10;99.90
2603;DHT22;1311;47.966;7.958;2023-04-25T15:58:01;10.10;99.90
2603;DHT22;1311;47.966;7.958;2023-04-25T16:00:28;10.20;99.90
2603;DHT22;1311;47.966;7.958;2023-04-25T16:02:56;10.30;99.90
2603;DHT22;1311;47.966;7.958;2023-04-25T16:05:22;10.30;99.90
2603;DHT22;1311;47.966;7.958;2023-04-25T16:07:50;10.40;99.90
2603;DHT22;1311;47.966;7.958;2023-04-25T16:10:19;10.20;99.90
2603;DHT22;1311;47.966;7.958;2023-04-25T16:12:46;10.30;99.90